Time;durP1;ratioP1;P1;durP2;ratioP2;P2;SDS_P1;SDS_P2;PMS_P1;PMS_P2;Temp;Humidity;BMP_temperature;BMP_pressure;BME280_temperature;BME280_humidity;BME280_pressure;Samples;Min_cycle;Max_cycle;Signal;HPM_P1;HPM_P2
2021/08/19 00:00:33;;;;;;;18.20;7.40;;;;;;;13.71;59.23;98833.23;125778;1092;102946;-74
2021/08/19 00:03:05;;;;;;;17.73;7.40;;;;;;;13.71;59.12;98838.58;125680;1093;102911;-74
2021/08/19 00:05:39;;;;;;;18.27;7.27;;;;;;;13.70;59.01;98834.22;126049;1093;102913;-73
2021/08/19 00:08:07;;;;;;;21.63;7.87;;;;;;;13.71;59.34;98838.58;125696;1091;102929;-74
2021/08/19 00:10:36;;;;;;;21.35;8.00;;;;;;;13.71;59.17;98835.91;126244;1093;102919;-74
2021/08/19 00:13:09;;;;;;;14.73;6.80;;;;;;;13.69;59.09;98838.70;125724;1093;103027;-73
2021/08/19 00:15:37;;;;;;;17.83;7.55;;;;;;;13.64;59.29;98830.27;125686;1093;103064;-75
2021/08/19 00:18:06;;;;;;;18.75;7.50;;;;;;;13.59;59.13;98823.63;125720;1093;102913;-75
2021/08/19 00:20:34;;;;;;;17.73;7.07;;;;;;;13.54;59.39;98830.23;125706;1092;103045;-75
2021/08/19 00:23:02;;;;;;;20.57;8.30;;;;;;;13.51;59.43;98835.02;125699;1093;103001;-74
2021/08/19 00:25:32;;;;;;;21.53;8.30;;;;;;;13.45;59.49;98832.88;125723;1093;102916;-73
2021/08/19 00:28:04;;;;;;;19.23;7.58;;;;;;;13.40;59.37;98820.73;125622;1093;103032;-74
2021/08/19 00:30:36;;;;;;;18.50;7.97;;;;;;;13.37;59.56;98829.02;125745;1093;102908;-76
2021/08/19 00:33:05;;;;;;;16.75;7.25;;;;;;;13.34;59.67;98821.28;125684;1095;103131;-73
2021/08/19 00:35:33;;;;;;;17.67;7.07;;;;;;;13.31;59.61;98818.88;125688;1093;102946;-73
2021/08/19 00:38:05;;;;;;;16.60;6.50;;;;;;;13.27;59.92;98825.47;125689;1092;102921;-73
2021/08/19 00:40:37;;;;;;;19.23;7.50;;;;;;;13.24;59.62;98828.44;125705;1093;103543;-73
2021/08/19 00:43:09;;;;;;;18.67;7.00;;;;;;;13.19;60.00;98818.14;125699;1093;103097;-74
2021/08/19 00:45:40;;;;;;;21.13;8.43;;;;;;;13.16;59.79;98817.58;125653;1093;103041;-73
2021/08/19 00:48:09;;;;;;;18.50;7.03;;;;;;;13.13;59.92;98829.35;125663;1093;102919;-72
2021/08/19 00:50:42;;;;;;;18.70;7.73;;;;;;;13.13;60.05;98817.84;125694;1093;103084;-74
2021/08/19 00:53:14;;;;;;;17.83;7.47;;;;;;;13.10;59.89;98821.61;125703;1093;103014;-73
2021/08/19 00:55:48;;;;;;;18.60;7.77;;;;;;;13.07;60.21;98824.55;125709;1093;102915;-73
2021/08/19 00:58:20;;;;;;;18.17;7.47;;;;;;;12.98;59.85;98822.70;125692;1093;102940;-73
2021/08/19 01:00:49;;;;;;;19.87;8.40;;;;;;;12.90;60.43;98818.00;125661;1092;103425;-71
2021/08/19 01:03:21;;;;;;;18.57;7.63;;;;;;;12.88;60.38;98819.95;125691;1094;102935;-73
2021/08/19 01:05:49;;;;;;;19.75;7.35;;;;;;;12.89;60.63;98826.98;125685;1093;102941;-74
2021/08/19 01:08:21;;;;;;;16.50;6.80;;;;;;;12.88;60.55;98820.81;125710;1093;102935;-74
2021/08/19 01:10:53;;;;;;;17.45;7.00;;;;;;;12.87;60.59;98827.13;125696;1092;102994;-74
2021/08/19 01:13:21;;;;;;;18.10;7.20;;;;;;;12.87;60.59;98826.27;125718;1095;102924;-73
2021/08/19 01:15:50;;;;;;;16.80;7.00;;;;;;;12.87;60.73;98829.80;125808;1093;102933;-74
2021/08/19 01:18:18;;;;;;;20.77;7.77;;;;;;;12.88;61.02;98828.83;125705;1091;103003;-74
2021/08/19 01:20:47;;;;;;;22.30;7.13;;;;;;;12.90;61.03;98826.01;125795;1092;102944;-74
2021/08/19 01:23:15;;;;;;;18.93;7.23;;;;;;;12.88;60.69;98826.16;125724;1093;103007;-74
2021/08/19 01:25:46;;;;;;;17.93;7.27;;;;;;;12.88;60.93;98817.28;125725;1093;102939;-74
2021/08/19 01:28:15;;;;;;;17.23;7.33;;;;;;;12.88;61.06;98815.48;125679;1092;102997;-74
2021/08/19 01:30:43;;;;;;;21.00;7.43;;;;;;;12.87;61.01;98819.13;125720;1093;103000;-75
2021/08/19 01:33:11;;;;;;;19.20;6.77;;;;;;;12.88;60.88;98817.28;125703;1093;102941;-73
2021/08/19 01:35:39;;;;;;;17.27;6.80;;;;;;;12.87;60.98;98820.94;125717;1093;102912;-73
2021/08/19 01:38:08;;;;;;;21.47;8.00;;;;;;;12.84;61.21;98819.39;125682;1092;102941;-74
2021/08/19 01:40:36;;;;;;;19.63;7.50;;;;;;;12.84;61.24;98818.55;125737;1093;102919;-74
2021/08/19 01:43:09;;;;;;;18.43;7.33;;;;;;;12.81;61.30;98814.31;126418;1093;102938;-75
2021/08/19 01:45:37;;;;;;;17.33;6.80;;;;;;;12.79;61.31;98816.27;125697;1093;103011;-74
2021/08/19 01:48:06;;;;;;;18.20;7.43;;;;;;;12.72;61.19;98815.95;125761;1093;103130;-74
2021/08/19 01:50:34;;;;;;;17.23;7.03;;;;;;;12.65;61.09;98810.28;125791;1092;103004;-73
2021/08/19 01:53:02;;;;;;;19.77;7.60;;;;;;;12.60;61.15;98806.33;125775;1092;103020;-75
2021/08/19 01:55:31;;;;;;;15.87;6.83;;;;;;;12.53;61.02;98813.16;125715;1093;103091;-75
2021/08/19 01:57:59;;;;;;;16.25;7.10;;;;;;;12.49;61.46;98810.75;125719;1096;103083;-75
2021/08/19 02:00:27;;;;;;;17.83;6.80;;;;;;;12.44;61.42;98807.62;125715;1092;102942;-74
2021/08/19 02:02:56;;;;;;;17.77;7.37;;;;;;;12.44;61.76;98806.78;125693;1093;102960;-74
2021/08/19 02:05:32;;;;;;;18.20;7.40;;;;;;;12.45;61.72;98808.48;125695;1093;102940;-74
2021/08/19 02:08:00;;;;;;;16.77;6.80;;;;;;;12.47;61.78;98809.20;125693;1093;103377;-73
2021/08/19 02:10:28;;;;;;;19.57;6.93;;;;;;;12.48;62.05;98805.55;125711;1093;102936;-73
2021/08/19 02:12:58;;;;;;;15.17;6.70;;;;;;;12.51;61.95;98800.80;125676;1093;103059;-74
2021/08/19 02:15:29;;;;;;;16.77;6.47;;;;;;;12.53;61.76;98813.16;125681;1093;103435;-74
2021/08/19 02:18:01;;;;;;;16.00;6.43;;;;;;;12.53;61.81;98806.02;125747;1093;103178;-73
2021/08/19 02:20:33;;;;;;;17.57;6.57;;;;;;;12.53;61.92;98806.02;125668;1093;103001;-73
2021/08/19 02:23:06;;;;;;;17.50;6.90;;;;;;;12.51;61.83;98803.46;125659;1092;102912;-74
2021/08/19 02:25:34;;;;;;;17.73;6.93;;;;;;;12.51;62.09;98799.96;125666;1093;102913;-73
2021/08/19 02:28:03;;;;;;;17.37;6.90;;;;;;;12.53;62.05;98813.16;125691;1093;103439;-73
2021/08/19 02:30:31;;;;;;;17.53;6.87;;;;;;;12.53;62.07;98811.35;125698;1093;102935;-73
2021/08/19 02:33:01;;;;;;;17.80;6.73;;;;;;;12.53;62.05;98814.02;125688;1093;103061;-73
2021/08/19 02:35:35;;;;;;;16.10;6.37;;;;;;;12.53;61.97;98816.69;125691;1092;102908;-73
2021/08/19 02:38:07;;;;;;;18.23;6.70;;;;;;;12.53;62.44;98806.02;125678;1093;102920;-73
2021/08/19 02:40:40;;;;;;;16.87;6.67;;;;;;;12.54;62.30;98807.70;125700;1093;103066;-74
2021/08/19 02:43:09;;;;;;;14.78;6.10;;;;;;;12.55;62.28;98805.87;125725;1093;103083;-73
2021/08/19 02:45:37;;;;;;;15.53;6.53;;;;;;;12.54;62.45;98802.38;125675;1096;103345;-74
2021/08/19 02:48:09;;;;;;;16.80;6.40;;;;;;;12.56;62.15;98810.23;125654;1096;103022;-74
2021/08/19 02:50:37;;;;;;;18.87;6.70;;;;;;;12.56;62.25;98796.89;125678;1096;102941;-73
2021/08/19 02:53:05;;;;;;;16.30;5.93;;;;;;;12.55;62.35;98801.39;125739;1095;102948;-72
2021/08/19 02:55:34;;;;;;;16.07;5.97;;;;;;;12.55;62.49;98798.73;125687;1096;103361;-72
2021/08/19 02:58:02;;;;;;;21.87;6.43;;;;;;;12.56;62.62;98796.89;125678;1093;102906;-72
2021/08/19 03:00:31;;;;;;;15.33;5.60;;;;;;;12.55;62.39;98796.06;125755;1093;103028;-73
2021/08/19 03:03:02;;;;;;;16.37;6.10;;;;;;;12.57;62.37;98791.44;125746;1092;102565;-74
2021/08/19 03:05:34;;;;;;;16.87;6.70;;;;;;;12.57;62.61;98796.78;125725;1093;103064;-74
2021/08/19 03:08:02;;;;;;;17.23;6.83;;;;;;;12.57;62.68;98798.58;125721;1093;103463;-75
2021/08/19 03:10:30;;;;;;;17.75;6.60;;;;;;;12.58;62.77;98797.61;125703;1093;102998;-76
2021/08/19 03:12:59;;;;;;;18.15;6.15;;;;;;;12.58;62.88;98797.61;125730;1093;102999;-75
2021/08/19 03:15:27;;;;;;;18.80;6.83;;;;;;;12.58;62.73;98802.94;125726;1093;103061;-75
2021/08/19 03:17:59;;;;;;;15.97;6.10;;;;;;;12.55;62.66;98803.20;125699;1093;103425;-73
2021/08/19 03:20:27;;;;;;;15.57;6.27;;;;;;;12.53;62.96;98803.34;125711;1093;102919;-73
2021/08/19 03:23:00;;;;;;;15.23;6.03;;;;;;;12.47;62.59;98795.86;125694;1093;102914;-73
2021/08/19 03:25:31;;;;;;;15.87;6.27;;;;;;;12.38;62.92;98801.97;125666;1093;102916;-72
2021/08/19 03:28:04;;;;;;;17.70;6.90;;;;;;;12.27;62.91;98808.22;125706;1093;103040;-72
2021/08/19 03:30:39;;;;;;;17.43;6.80;;;;;;;12.18;62.82;98807.17;125661;1092;103265;-73
2021/08/19 03:33:07;;;;;;;16.50;7.00;;;;;;;12.10;62.91;98812.30;125677;1093;103057;-73
2021/08/19 03:35:36;;;;;;;17.70;6.90;;;;;;;12.01;62.91;98811.25;125686;1093;103064;-73
2021/08/19 03:38:05;;;;;;;19.83;6.70;;;;;;;11.93;62.90;98803.00;125786;1092;102813;-72
2021/08/19 03:40:37;;;;;;;16.47;6.67;;;;;;;11.87;63.17;98807.00;125753;1093;103074;-72
2021/08/19 03:43:05;;;;;;;17.90;7.47;;;;;;;11.78;63.21;98807.78;125643;1093;102932;-72
2021/08/19 03:45:34;;;;;;;21.90;7.17;;;;;;;11.73;63.19;98808.14;125756;1093;102916;-72
2021/08/19 03:48:02;;;;;;;17.27;7.00;;;;;;;11.68;63.26;98805.86;125698;1093;103157;-72
2021/08/19 03:50:31;;;;;;;17.40;7.33;;;;;;;11.62;63.46;98806.36;125683;1093;102994;-72
2021/08/19 03:52:59;;;;;;;18.20;7.53;;;;;;;11.57;63.48;98803.22;125671;1093;103065;-72
2021/08/19 03:55:28;;;;;;;15.37;6.77;;;;;;;11.51;63.42;98803.71;125675;1093;102948;-72
2021/08/19 03:57:56;;;;;;;16.77;6.47;;;;;;;11.44;63.84;98803.38;125724;1093;102932;-72
2021/08/19 04:00:24;;;;;;;18.67;7.10;;;;;;;11.39;63.91;98805.55;125620;1094;103020;-72
2021/08/19 04:02:56;;;;;;;17.30;7.00;;;;;;;11.34;63.82;98803.27;125727;1093;102908;-72
2021/08/19 04:05:29;;;;;;;17.60;7.25;;;;;;;11.35;64.30;98812.09;125737;1094;102927;-72
2021/08/19 04:07:57;;;;;;;17.20;6.55;;;;;;;11.35;64.14;98806.77;125626;1093;103252;-73
2021/08/19 04:10:25;;;;;;;16.83;5.93;;;;;;;11.39;64.42;98809.08;125690;1093;103009;-72
2021/08/19 04:12:54;;;;;;;17.07;7.03;;;;;;;11.45;64.34;98811.22;125682;1093;102915;-74
2021/08/19 04:15:26;;;;;;;15.33;5.40;;;;;;;11.56;64.51;98814.84;125705;1093;102916;-75
2021/08/19 04:17:55;;;;;;;14.37;6.13;;;;;;;11.67;64.63;98817.49;125703;1093;102998;-74
2021/08/19 04:20:27;;;;;;;16.50;7.10;;;;;;;11.79;64.64;98806.81;125666;1093;103000;-75
2021/08/19 04:23:02;;;;;;;14.00;5.03;;;;;;;11.91;64.59;98816.44;125710;1093;103464;-74
2021/08/19 04:25:30;;;;;;;14.47;5.70;;;;;;;12.02;64.81;98821.77;125653;1093;102939;-71
2021/08/19 04:27:59;;;;;;;15.73;5.83;;;;;;;12.14;64.77;98821.73;125715;1093;102935;-72
2021/08/19 04:30:27;;;;;;;16.27;5.60;;;;;;;12.26;64.86;98818.02;125691;1093;102997;-72
2021/08/19 04:32:56;;;;;;;13.53;5.43;;;;;;;12.38;64.96;98821.50;125687;1093;102939;-72
2021/08/19 04:35:29;;;;;;;12.30;5.50;;;;;;;12.49;64.89;98825.92;125688;1094;103386;-73
2021/08/19 04:38:00;;;;;;;15.27;5.63;;;;;;;12.59;64.80;98831.31;125676;1095;103389;-72
2021/08/19 04:40:28;;;;;;;11.47;5.00;;;;;;;12.68;64.83;98822.53;125695;1096;103099;-72
2021/08/19 04:42:56;;;;;;;13.75;5.25;;;;;;;12.77;64.63;98819.08;125699;1096;103096;-71
2021/08/19 04:45:25;;;;;;;13.93;5.23;;;;;;;12.86;64.65;98827.25;125670;1096;102965;-73
2021/08/19 04:47:53;;;;;;;12.63;5.37;;;;;;;12.95;64.89;98831.80;125686;1096;103023;-74
2021/08/19 04:50:21;;;;;;;14.30;5.20;;;;;;;13.02;64.91;98827.63;125723;1093;102990;-72
2021/08/19 04:52:53;;;;;;;11.27;4.80;;;;;;;13.10;64.59;98826.95;125695;1096;102914;-73
2021/08/19 04:55:25;;;;;;;14.73;5.30;;;;;;;13.19;65.07;98830.66;125702;1095;102935;-72
2021/08/19 04:57:53;;;;;;;14.93;5.60;;;;;;;13.27;65.08;98829.98;125682;1096;102951;-72
2021/08/19 05:00:21;;;;;;;17.60;5.47;;;;;;;13.33;64.92;98826.77;125754;1093;103061;-72
2021/08/19 05:02:53;;;;;;;13.33;4.93;;;;;;;13.41;65.23;98824.30;125733;1093;103374;-71
2021/08/19 05:05:22;;;;;;;13.60;5.30;;;;;;;13.49;64.93;98828.96;125698;1093;102917;-71
2021/08/19 05:07:50;;;;;;;14.20;5.80;;;;;;;13.56;64.87;98827.44;125707;1093;103065;-72
2021/08/19 05:10:19;;;;;;;12.63;4.83;;;;;;;13.62;65.02;98826.89;125657;1093;103000;-73
2021/08/19 05:12:47;;;;;;;14.10;5.10;;;;;;;13.68;65.18;98823.64;125714;1093;102945;-72
2021/08/19 05:15:20;;;;;;;13.15;5.30;;;;;;;13.76;65.04;98824.79;125679;1093;103039;-72
2021/08/19 05:17:49;;;;;;;13.27;5.37;;;;;;;13.81;65.00;98828.76;126407;1093;102984;-72
2021/08/19 05:20:17;;;;;;;15.27;5.50;;;;;;;13.89;65.02;98828.05;125917;1095;102302;-75
2021/08/19 05:22:45;;;;;;;15.03;6.30;;;;;;;13.97;64.92;98825.54;125684;1096;103005;-73
2021/08/19 05:25:17;;;;;;;15.93;5.13;;;;;;;14.08;65.34;98826.36;125908;1093;102916;-73
2021/08/19 05:27:48;;;;;;;16.37;5.53;;;;;;;14.17;65.00;98822.85;126023;1093;102988;-77
2021/08/19 05:30:17;;;;;;;12.63;4.97;;;;;;;14.26;65.17;98826.53;125752;1093;102941;-77
2021/08/19 05:32:45;;;;;;;11.37;4.17;;;;;;;14.34;65.23;98823.97;125799;1092;102913;-77
2021/08/19 05:35:13;;;;;;;10.37;4.63;;;;;;;14.45;65.28;98823.00;125694;1093;102913;-81
2021/08/19 05:37:42;;;;;;;11.70;4.80;;;;;;;14.56;65.24;98825.50;125765;1093;102940;-77
2021/08/19 05:40:10;;;;;;;9.70;4.40;;;;;;;14.67;65.30;98834.36;125741;1093;102942;-76
2021/08/19 05:42:38;;;;;;;11.17;4.40;;;;;;;14.78;65.22;98823.53;125718;1093;102997;-76
2021/08/19 05:45:09;;;;;;;12.13;4.80;;;;;;;14.90;65.12;98826.88;125699;1093;103037;-75
2021/08/19 05:47:37;;;;;;;10.60;4.97;;;;;;;15.00;65.25;98824.16;125680;1093;102969;-77
2021/08/19 05:50:12;;;;;;;13.13;4.90;;;;;;;15.07;65.21;98830.63;125736;1093;103009;-75
2021/08/19 05:52:40;;;;;;;11.93;4.60;;;;;;;15.14;65.03;98828.19;125675;1093;103151;-73
2021/08/19 05:55:10;;;;;;;12.70;4.87;;;;;;;15.21;65.10;98836.50;125714;1093;103050;-74
2021/08/19 05:57:38;;;;;;;9.97;4.33;;;;;;;15.27;65.09;98828.70;125679;1096;103145;-73
2021/08/19 06:00:10;;;;;;;11.93;4.70;;;;;;;15.37;65.10;98833.19;125740;1095;103269;-74
2021/08/19 06:02:39;;;;;;;9.47;4.63;;;;;;;15.44;65.09;98827.08;125743;1093;103007;-76
2021/08/19 06:05:10;;;;;;;9.57;3.90;;;;;;;15.52;65.02;98830.85;125685;1093;103015;-77
2021/08/19 06:07:39;;;;;;;12.17;4.27;;;;;;;15.57;65.01;98826.72;125720;1093;103010;-74
2021/08/19 06:10:12;;;;;;;11.00;4.63;;;;;;;15.63;65.01;98830.66;125723;1093;103029;-75
2021/08/19 06:12:40;;;;;;;12.23;5.07;;;;;;;15.67;65.06;98821.32;125735;1093;102919;-75
2021/08/19 06:15:12;;;;;;;13.43;4.43;;;;;;;15.73;65.13;98828.73;125685;1093;102998;-73
2021/08/19 06:17:40;;;;;;;11.73;4.53;;;;;;;15.82;64.84;98821.64;125720;1093;103017;-74
2021/08/19 06:20:11;;;;;;;10.03;4.07;;;;;;;15.87;65.01;98826.58;125711;1093;102994;-77
2021/08/19 06:22:40;;;;;;;8.07;3.80;;;;;;;15.92;65.05;98822.43;125685;1093;102980;-75
2021/08/19 06:25:11;;;;;;;9.83;4.23;;;;;;;15.98;64.88;98817.45;125754;1093;102998;-75
2021/08/19 06:27:40;;;;;;;9.70;4.13;;;;;;;16.06;65.04;98818.40;125729;1093;102997;-74
2021/08/19 06:30:13;;;;;;;11.70;3.90;;;;;;;16.14;64.87;98824.81;126201;1095;103000;-73
2021/08/19 06:32:41;;;;;;;8.57;3.97;;;;;;;16.21;64.84;98820.52;125770;1091;103041;-73
2021/08/19 06:35:13;;;;;;;11.60;4.00;;;;;;;16.27;64.99;98824.45;125690;1096;102903;-73
2021/08/19 06:37:42;;;;;;;8.03;3.67;;;;;;;16.35;65.06;98825.35;125679;1093;103097;-74
2021/08/19 06:40:12;;;;;;;9.00;3.90;;;;;;;16.49;65.10;98828.49;125737;1095;102922;-76
2021/08/19 06:42:40;;;;;;;15.23;4.37;;;;;;;16.63;64.83;98829.77;125750;1095;102921;-77
2021/08/19 06:45:12;;;;;;;8.27;3.73;;;;;;;16.75;65.01;98825.80;125788;1096;102888;-78
2021/08/19 06:47:44;;;;;;;8.85;3.95;;;;;;;16.86;64.87;98821.17;125759;1093;102938;-77
2021/08/19 06:50:13;;;;;;;10.63;3.93;;;;;;;16.96;64.81;98820.09;125737;1093;102949;-79
2021/08/19 06:52:44;;;;;;;12.30;4.00;;;;;;;17.05;64.74;98829.06;125734;1093;103178;-75
2021/08/19 06:55:16;;;;;;;10.63;4.63;;;;;;;17.19;64.71;98837.52;125668;1093;102913;-77
2021/08/19 06:57:44;;;;;;;10.70;4.53;;;;;;;17.28;64.95;98833.87;125688;1094;102918;-80
2021/08/19 07:00:13;;;;;;;9.30;3.90;;;;;;;17.34;64.63;98840.44;125719;1093;103068;-73
2021/08/19 07:02:42;;;;;;;9.97;3.90;;;;;;;17.36;64.70;98839.29;125690;1093;103156;-80
2021/08/19 07:05:14;;;;;;;8.90;3.50;;;;;;;17.33;64.60;98842.30;125678;1093;102948;-75
2021/08/19 07:07:43;;;;;;;6.67;3.33;;;;;;;17.31;64.57;98841.61;125689;1096;102948;-73
2021/08/19 07:10:15;;;;;;;12.85;3.90;;;;;;;17.32;64.22;98839.78;125714;1093;103036;-76
2021/08/19 07:12:43;;;;;;;10.67;3.67;;;;;;;17.39;64.42;98835.42;125690;1093;104468;-72
2021/08/19 07:15:11;;;;;;;10.63;4.03;;;;;;;17.70;64.27;98837.58;125684;1093;103007;-73
2021/08/19 07:17:40;;;;;;;8.13;3.97;;;;;;;18.99;62.40;98829.92;125710;1093;102930;-74
2021/08/19 07:20:14;;;;;;;7.03;3.17;;;;;;;20.05;62.04;98823.44;125754;1093;102965;-74
2021/08/19 07:22:45;;;;;;;6.97;3.07;;;;;;;21.04;62.10;98829.88;126505;1093;102909;-73
2021/08/19 07:25:23;;;;;;;5.97;3.40;;;;;;;21.88;61.84;98825.97;125775;1096;103059;-72
2021/08/19 07:27:51;;;;;;;5.13;3.40;;;;;;;22.69;61.49;98824.05;125668;1095;103090;-75
2021/08/19 07:30:20;;;;;;;6.93;2.90;;;;;;;23.46;61.87;98814.13;125750;1095;102969;-75
2021/08/19 07:32:48;;;;;;;5.13;3.10;;;;;;;24.14;61.88;98811.67;125790;1095;102948;-78
2021/08/19 07:35:20;;;;;;;6.53;3.17;;;;;;;24.88;60.96;98812.55;125719;1095;102938;-74
2021/08/19 07:37:57;;;;;;;6.20;3.50;;;;;;;25.58;61.11;98821.17;125704;1095;102986;-75
2021/08/19 07:40:29;;;;;;;7.70;2.83;;;;;;;26.25;60.67;98816.23;125666;1096;103054;-74
2021/08/19 07:42:59;;;;;;;5.10;2.98;;;;;;;26.68;60.26;98816.53;125662;1096;102976;-73
2021/08/19 07:45:30;;;;;;;7.90;2.63;;;;;;;27.00;60.00;98808.27;125636;1096;103422;-74
2021/08/19 07:47:58;;;;;;;8.33;3.30;;;;;;;27.34;59.85;98817.78;125671;1095;102946;-73
2021/08/19 07:50:27;;;;;;;8.17;3.40;;;;;;;27.92;59.44;98818.33;125699;1096;102920;-74
2021/08/19 07:52:55;;;;;;;6.40;3.23;;;;;;;28.51;58.86;98814.97;125702;1096;103067;-73
2021/08/19 07:55:23;;;;;;;6.13;2.90;;;;;;;28.97;58.67;98811.69;125656;1093;102970;-73
2021/08/19 07:57:55;;;;;;;7.13;3.20;;;;;;;29.41;58.05;98819.52;125693;1091;102938;-74
2021/08/19 08:00:31;;;;;;;12.40;3.95;;;;;;;29.75;58.07;98808.72;125672;1093;102924;-74
2021/08/19 08:03:01;;;;;;;9.20;3.40;;;;;;;30.41;57.40;98816.51;125742;1096;102945;-79
2021/08/19 08:05:39;;;;;;;5.07;3.40;;;;;;;30.89;57.07;98811.52;126592;1093;101844;-78
2021/08/19 08:08:11;;;;;;;6.53;3.00;;;;;;;31.48;57.66;98810.16;125684;1091;102946;-83
2021/08/19 08:10:43;;;;;;;7.80;3.53;;;;;;;32.22;56.65;98807.94;125678;1093;103001;-75
2021/08/19 08:13:15;;;;;;;;;;;;;;;32.49;54.92;98807.12;125725;1093;102908;-74
2021/08/19 08:15:44;;;;;;;8.85;3.93;;;;;;;32.77;55.60;98805.11;125678;1093;102948;-71
2021/08/19 08:18:17;;;;;;;8.93;3.37;;;;;;;32.92;55.07;98814.62;125680;1093;102930;-76
2021/08/19 08:20:49;;;;;;;6.57;3.30;;;;;;;32.90;54.75;98803.03;125665;1093;103053;-75
2021/08/19 08:23:21;;;;;;;4.65;3.05;;;;;;;33.28;55.40;98797.44;125642;1092;103051;-76
2021/08/19 08:25:55;;;;;;;9.67;3.57;;;;;;;33.52;53.73;98790.42;125658;1096;103005;-78
2021/08/19 08:28:30;;;;;;;5.53;3.30;;;;;;;33.69;53.88;98800.38;125655;1095;103063;-79
2021/08/19 08:31:03;;;;;;;8.70;2.80;;;;;;;34.07;53.05;98798.29;125658;1097;103047;-79
2021/08/19 08:33:35;;;;;;;5.45;3.00;;;;;;;34.10;52.92;98800.50;125679;1095;103015;-79
2021/08/19 08:36:06;;;;;;;5.93;3.00;;;;;;;34.01;52.14;98799.41;125708;1093;103001;-79
2021/08/19 08:38:34;;;;;;;6.07;3.37;;;;;;;34.03;52.24;98793.61;125714;1093;103022;-78
2021/08/19 08:41:03;;;;;;;4.77;3.20;;;;;;;34.14;52.11;98800.80;125696;1093;103400;-79
2021/08/19 08:43:34;;;;;;;3.70;2.83;;;;;;;34.22;51.71;98797.50;125683;1093;102907;-79
2021/08/19 08:46:11;;;;;;;5.07;3.30;;;;;;;34.24;51.56;98800.79;125661;1096;103101;-77
2021/08/19 08:48:44;;;;;;;2.93;2.43;;;;;;;33.78;50.98;98806.22;125705;1092;102919;-79
2021/08/19 08:51:17;;;;;;;3.37;2.37;;;;;;;33.38;49.33;98805.79;125647;1096;103087;-80
2021/08/19 08:53:45;;;;;;;6.47;2.57;;;;;;;33.08;49.89;98816.35;125695;1093;103006;-72
2021/08/19 08:56:26;;;;;;;2.60;2.20;;;;;;;32.11;49.16;98819.11;125676;1093;103062;-73
2021/08/19 08:59:00;;;;;;;6.28;2.70;;;;;;;31.29;48.56;98817.89;125706;1093;102917;-74
2021/08/19 09:01:29;;;;;;;5.50;2.50;;;;;;;31.33;48.32;98823.69;125633;1096;103012;-77
2021/08/19 09:03:58;;;;;;;5.73;2.77;;;;;;;30.62;48.39;98819.61;125703;1093;102949;-73
2021/08/19 09:06:38;;;;;;;3.10;2.40;;;;;;;30.17;47.48;98817.70;125665;1093;103012;-75
2021/08/19 09:09:16;;;;;;;5.50;3.20;;;;;;;30.26;47.11;98810.75;125677;1093;103073;-75
2021/08/19 09:11:59;;;;;;;3.75;2.50;;;;;;;30.72;46.55;98818.95;125772;1093;103319;-75
2021/08/19 09:14:32;;;;;;;3.70;2.00;;;;;;;30.94;47.01;98812.68;125671;1093;102945;-72
2021/08/19 09:17:00;;;;;;;4.03;2.50;;;;;;;30.72;46.91;98817.03;125775;1093;103496;-70
2021/08/19 09:19:33;;;;;;;4.20;2.50;;;;;;;30.62;45.75;98816.86;125669;1093;102933;-71
2021/08/19 09:22:07;;;;;;;2.83;2.40;;;;;;;30.70;45.83;98808.22;125657;1093;102972;-71
2021/08/19 09:24:36;;;;;;;3.73;2.60;;;;;;;31.15;45.62;98813.80;125763;1096;103010;-71
2021/08/19 09:27:19;;;;;;;5.13;2.37;;;;;;;31.61;45.67;98808.09;125666;1095;102983;-68
2021/08/19 09:29:49;;;;;;;3.90;2.45;;;;;;;32.02;45.31;98797.56;125636;1093;102913;-76
2021/08/19 09:32:22;;;;;;;4.57;2.57;;;;;;;32.22;44.01;98805.19;125629;1093;102938;-77
2021/08/19 09:34:51;;;;;;;4.43;2.27;;;;;;;32.18;44.50;98811.48;125623;1092;103012;-76
2021/08/19 09:37:20;;;;;;;6.83;2.67;;;;;;;32.01;44.06;98797.84;125630;1093;102983;-77
2021/08/19 09:39:57;;;;;;;3.63;2.37;;;;;;;31.82;43.92;98802.87;125598;1093;103179;-77
2021/08/19 09:42:37;;;;;;;3.50;2.43;;;;;;;31.75;43.59;98798.40;125631;1093;102948;-79
2021/08/19 09:45:24;;;;;;;6.10;2.70;;;;;;;31.84;43.59;98795.20;125643;1096;102997;-78
2021/08/19 09:48:05;;;;;;;7.93;2.57;;;;;;;32.14;43.27;98805.69;125595;1093;103035;-78
2021/08/19 09:50:34;;;;;;;4.67;2.43;;;;;;;32.16;43.15;98792.50;125638;1093;102994;-80
2021/08/19 09:53:24;;;;;;;3.97;2.30;;;;;;;32.50;43.17;98786.76;125621;1093;103020;-79
2021/08/19 09:55:53;;;;;;;3.37;2.37;;;;;;;32.45;42.51;98789.47;125666;1093;102935;-79
2021/08/19 09:58:30;;;;;;;5.65;2.75;;;;;;;32.13;42.86;98784.77;125568;1096;103139;-80
2021/08/19 10:00:59;;;;;;;5.53;2.60;;;;;;;31.72;42.76;98790.66;125640;1093;103177;-78
2021/08/19 10:03:28;;;;;;;6.00;2.40;;;;;;;31.31;42.40;98788.25;125644;1092;103023;-80
2021/08/19 10:05:57;;;;;;;5.53;2.57;;;;;;;30.77;42.20;98794.34;125649;1093;102944;-80
2021/08/19 10:08:26;;;;;;;4.13;2.60;;;;;;;30.30;41.62;98788.08;125646;1093;102935;-80
2021/08/19 10:10:56;;;;;;;3.30;2.37;;;;;;;29.73;42.13;98785.35;125691;1093;103066;-82
2021/08/19 10:13:24;;;;;;;5.93;2.53;;;;;;;29.23;41.52;98793.08;125663;1096;103555;-82
2021/08/19 10:15:53;;;;;;;3.17;2.47;;;;;;;28.73;41.62;98783.46;125702;1096;102946;-82
2021/08/19 10:18:25;;;;;;;4.10;2.20;;;;;;;28.29;41.09;98781.88;125697;1096;103054;-83
2021/08/19 10:21:07;;;;;;;2.93;2.35;;;;;;;27.85;41.35;98784.82;125706;1093;102911;-81
2021/08/19 10:23:56;;;;;;;5.47;2.63;;;;;;;27.33;41.06;98775.16;125644;1096;103034;-81
2021/08/19 10:26:25;;;;;;;3.83;2.60;;;;;;;26.98;40.97;98781.22;125648;1093;102980;-80
2021/08/19 10:28:56;;;;;;;4.50;2.55;;;;;;;26.67;40.86;98766.61;125628;1093;103035;-80
2021/08/19 10:31:36;;;;;;;4.63;2.33;;;;;;;26.35;40.85;98785.73;125635;1093;103437;-80
2021/08/19 10:34:09;;;;;;;3.93;2.53;;;;;;;26.06;40.92;98784.48;125612;1093;103048;-80
2021/08/19 10:36:45;;;;;;;6.20;2.80;;;;;;;26.03;40.92;98785.73;125618;1092;102969;-79
2021/08/19 10:39:19;;;;;;;6.40;2.60;;;;;;;25.89;40.92;98782.26;125608;1093;102913;-77
2021/08/19 10:41:49;;;;;;;4.67;2.30;;;;;;;25.54;40.77;98788.11;125644;1093;103007;-77
2021/08/19 10:44:39;;;;;;;7.93;2.90;;;;;;;25.32;40.89;98782.09;125571;1093;103016;-77
2021/08/19 10:47:32;;;;;;;5.50;2.80;;;;;;;25.16;40.73;98778.77;125645;1093;103003;-76
2021/08/19 10:50:29;;;;;;;7.77;2.67;;;;;;;24.92;40.45;98780.30;125631;1093;102943;-75
2021/08/19 10:53:16;;;;;;;5.73;2.77;;;;;;;24.63;40.78;98782.41;125605;1093;103028;-77
2021/08/19 10:55:50;;;;;;;5.93;2.67;;;;;;;24.53;40.94;98786.38;125649;1093;102999;-75
2021/08/19 10:58:40;;;;;;;9.10;3.00;;;;;;;24.32;40.55;98778.45;125603;1096;102953;-77
2021/08/19 11:01:15;;;;;;;6.10;2.63;;;;;;;24.20;40.98;98787.22;125624;1096;103062;-75
2021/08/19 11:03:48;;;;;;;6.70;3.17;;;;;;;24.17;40.68;98781.37;125581;1096;102914;-75
2021/08/19 11:06:19;;;;;;;9.33;4.00;;;;;;;24.18;41.25;98783.86;125597;1096;103470;-77
2021/08/19 11:08:47;;;;;;;2.90;2.20;;;;;;;24.19;41.20;98780.11;125622;1093;102916;-76
2021/08/19 11:11:28;;;;;;;3.93;2.67;;;;;;;24.16;41.08;98775.08;125589;1093;103425;-73
2021/08/19 11:14:01;;;;;;;5.17;2.50;;;;;;;24.18;41.16;98777.61;125550;1093;103028;-72
2021/08/19 11:16:30;;;;;;;3.50;2.07;;;;;;;24.13;41.02;98774.67;125597;1093;102934;-80
2021/08/19 11:19:15;;;;;;;5.97;2.73;;;;;;;24.05;40.83;98770.25;125598;1094;103063;-80
2021/08/19 11:21:49;;;;;;;4.60;2.77;;;;;;;24.01;41.18;98772.56;125588;1096;103109;-77
2021/08/19 11:24:19;;;;;;;6.53;2.77;;;;;;;23.99;41.21;98771.93;125643;1093;103383;-76
2021/08/19 11:27:08;;;;;;;9.83;2.83;;;;;;;23.97;41.16;98768.55;125587;1093;103057;-74
2021/08/19 11:29:42;;;;;;;6.05;2.95;;;;;;;24.01;41.65;98760.88;125655;1093;103160;-75